Time;durP1;ratioP1;P1;durP2;ratioP2;P2;SDS_P1;SDS_P2;PMS_P1;PMS_P2;Temp;Humidity;BMP_temperature;BMP_pressure;BME280_temperature;BME280_humidity;BME280_pressure;Samples;Min_cycle;Max_cycle;Signal;HPM_P1;HPM_P2
2024/01/24 00:01:53;;;;;;;22.52;20.92;;;10.10;99.90;;;;;;4862968;29;20049;-87
2024/01/24 00:04:22;;;;;;;23.02;21.23;;;10.10;99.90;;;;;;4880259;29;20040;-88
2024/01/24 00:06:49;;;;;;;23.65;21.88;;;10.00;99.90;;;;;;4890994;29;20029;-88
2024/01/24 00:09:15;;;;;;;23.08;21.58;;;10.10;99.90;;;;;;4881014;29;20499;-89
2024/01/24 00:11:41;;;;;;;23.77;22.08;;;10.00;99.90;;;;;;4881237;29;20036;-89
2024/01/24 00:14:09;;;;;;;25.13;23.10;;;10.00;99.90;;;;;;4880867;29;20049;-87
2024/01/24 00:16:35;;;;;;;24.45;22.73;;;10.00;99.90;;;;;;4865367;29;20808;-88
2024/01/24 00:19:02;;;;;;;25.02;23.52;;;9.90;99.90;;;;;;4880887;29;20116;-88
2024/01/24 00:21:28;;;;;;;24.65;23.08;;;10.00;99.90;;;;;;4866961;29;20037;-88
2024/01/24 00:23:55;;;;;;;24.30;22.80;;;10.00;99.90;;;;;;4865443;29;20067;-88
2024/01/24 00:26:21;;;;;;;25.02;23.30;;;9.90;99.90;;;;;;4864936;29;20033;-89
2024/01/24 00:28:48;;;;;;;25.13;23.50;;;9.90;99.90;;;;;;4865551;29;20046;-88
2024/01/24 00:31:14;;;;;;;24.92;23.33;;;10.00;99.90;;;;;;4865225;29;20502;-88
2024/01/24 00:33:41;;;;;;;24.70;23.13;;;10.00;99.90;;;;;;4880806;29;20037;-88
2024/01/24 00:36:07;;;;;;;25.20;23.60;;;9.90;99.90;;;;;;4880515;29;20116;-87
2024/01/24 00:38:33;;;;;;;25.25;23.48;;;10.00;99.90;;;;;;4880518;29;20084;-88
2024/01/24 00:40:59;;;;;;;24.00;22.60;;;9.90;99.90;;;;;;4880344;29;20044;-87
2024/01/24 00:43:26;;;;;;;25.08;23.02;;;9.90;99.90;;;;;;4880403;29;20033;-88
2024/01/24 00:45:52;;;;;;;23.88;22.30;;;9.80;99.90;;;;;;4880403;29;20080;-88
2024/01/24 00:48:18;;;;;;;23.73;22.13;;;9.80;99.90;;;;;;4880379;29;20033;-88
2024/01/24 00:50:44;;;;;;;23.30;21.80;;;9.80;99.90;;;;;;4880343;29;20029;-88
2024/01/24 00:53:19;;;;;;;23.98;22.40;;;9.90;99.90;;;;;;4880282;29;20498;-88
2024/01/24 00:55:46;;;;;;;23.90;22.38;;;9.90;99.90;;;;;;4880330;29;20041;-88
2024/01/24 00:58:19;;;;;;;24.27;22.42;;;9.90;99.90;;;;;;4880372;29;20033;-89
2024/01/24 01:00:45;;;;;;;24.17;22.33;;;9.90;99.90;;;;;;4880481;29;20156;-88
2024/01/24 01:03:11;;;;;;;24.40;22.70;;;9.90;99.90;;;;;;4880035;29;20535;-88
2024/01/24 01:05:38;;;;;;;23.42;22.08;;;10.00;99.90;;;;;;4880143;29;20044;-89
2024/01/24 01:08:05;;;;;;;23.42;21.90;;;9.90;99.90;;;;;;4880182;29;20046;-89
2024/01/24 01:10:32;;;;;;;23.35;21.75;;;9.90;99.90;;;;;;4884418;29;20017;-88
2024/01/24 01:12:59;;;;;;;24.50;22.83;;;9.80;99.90;;;;;;4849018;29;20041;-89
2024/01/24 01:15:25;;;;;;;24.73;22.90;;;9.80;99.90;;;;;;4879758;29;20029;-88
2024/01/24 01:17:52;;;;;;;24.42;22.75;;;9.90;99.90;;;;;;4864392;29;20037;-88
2024/01/24 01:20:21;;;;;;;24.88;23.15;;;9.90;99.90;;;;;;4879510;29;20483;-88
2024/01/24 01:22:48;;;;;;;25.00;23.17;;;9.90;99.90;;;;;;4872205;29;20029;-88
2024/01/24 01:25:14;;;;;;;26.15;24.20;;;9.90;99.90;;;;;;4884805;29;20029;-89
2024/01/24 01:27:41;;;;;;;25.23;23.42;;;9.80;99.90;;;;;;4864403;29;20368;-88
2024/01/24 01:30:08;;;;;;;25.67;23.95;;;9.90;99.90;;;;;;4879708;29;20033;-88
2024/01/24 01:32:34;;;;;;;25.42;23.83;;;9.90;99.90;;;;;;4864287;29;20032;-88
2024/01/24 01:35:00;;;;;;;25.92;24.33;;;9.90;99.90;;;;;;4879517;29;20062;-88
2024/01/24 01:37:27;;;;;;;25.95;24.15;;;9.90;99.90;;;;;;4864076;29;20112;-89
2024/01/24 01:39:53;;;;;;;25.27;23.60;;;9.90;99.90;;;;;;4879290;29;20037;-88
2024/01/24 01:42:23;;;;;;;25.90;24.20;;;9.80;99.90;;;;;;4864010;29;20037;-88
2024/01/24 01:44:49;;;;;;;26.20;24.60;;;9.80;99.90;;;;;;4879339;29;20514;-88
2024/01/24 01:47:16;;;;;;;25.88;24.38;;;9.80;99.90;;;;;;4863969;29;20108;-89
2024/01/24 01:49:45;;;;;;;25.88;23.92;;;9.70;99.90;;;;;;4863793;29;20052;-88
2024/01/24 01:52:12;;;;;;;25.55;23.85;;;9.70;99.90;;;;;;4863855;29;20033;-88
2024/01/24 01:54:40;;;;;;;26.25;24.08;;;9.60;99.90;;;;;;4879420;29;20033;-88
2024/01/24 01:57:08;;;;;;;25.85;24.15;;;9.60;99.90;;;;;;4863974;29;20028;-88
2024/01/24 01:59:36;;;;;;;26.38;24.70;;;9.60;99.90;;;;;;4863827;29;20025;-88
2024/01/24 02:02:04;;;;;;;25.98;24.13;;;9.60;99.90;;;;;;4863707;29;20037;-88
2024/01/24 02:04:30;;;;;;;26.45;24.58;;;9.60;99.90;;;;;;4879162;29;20119;-88
2024/01/24 02:06:57;;;;;;;27.10;25.20;;;9.60;99.90;;;;;;4863807;29;20073;-88
2024/01/24 02:09:24;;;;;;;26.02;24.02;;;9.60;99.90;;;;;;4879371;29;20033;-89
2024/01/24 02:11:51;;;;;;;26.52;24.77;;;9.50;99.90;;;;;;4860523;29;20026;-89
2024/01/24 02:14:21;;;;;;;26.55;24.77;;;9.60;99.90;;;;;;4866710;29;20045;-89
2024/01/24 02:16:47;;;;;;;27.42;25.33;;;9.60;99.90;;;;;;4860487;29;20042;-88
2024/01/24 02:19:14;;;;;;;26.88;24.98;;;9.70;99.90;;;;;;4860501;29;20032;-88
2024/01/24 02:21:40;;;;;;;28.05;25.95;;;9.70;99.90;;;;;;4876606;29;20045;-88
2024/01/24 02:24:10;;;;;;;27.50;25.55;;;9.60;99.90;;;;;;4863759;29;20017;-88
2024/01/24 02:26:36;;;;;;;27.35;25.45;;;9.70;99.90;;;;;;4865420;29;20085;-87
2024/01/24 02:29:04;;;;;;;27.30;25.52;;;9.70;99.90;;;;;;4865245;29;20034;-88
2024/01/24 02:31:30;;;;;;;27.67;25.52;;;9.70;99.90;;;;;;4864115;29;20488;-88
2024/01/24 02:33:57;;;;;;;27.80;26.10;;;9.70;99.90;;;;;;4864050;29;20501;-88
2024/01/24 02:36:23;;;;;;;28.10;26.13;;;9.60;99.90;;;;;;4864017;29;20038;-88
2024/01/24 02:38:56;;;;;;;27.80;25.95;;;9.60;99.90;;;;;;4864120;29;20096;-87
2024/01/24 02:41:23;;;;;;;27.63;25.90;;;9.60;99.90;;;;;;4864024;29;20041;-88
2024/01/24 02:43:49;;;;;;;27.42;25.42;;;9.60;99.90;;;;;;4864018;29;20034;-88
2024/01/24 02:46:16;;;;;;;26.77;25.05;;;9.60;99.90;;;;;;4864005;29;20041;-88
2024/01/24 02:48:42;;;;;;;26.92;25.33;;;9.80;99.90;;;;;;4863982;29;20029;-88
2024/01/24 02:51:11;;;;;;;26.90;24.98;;;9.70;99.90;;;;;;4863979;29;20036;-88
2024/01/24 02:53:39;;;;;;;26.58;24.88;;;9.70;99.90;;;;;;4864142;29;20034;-89
2024/01/24 02:56:05;;;;;;;26.13;24.63;;;9.60;99.90;;;;;;4863919;29;20040;-88
2024/01/24 02:58:31;;;;;;;26.45;24.80;;;9.60;99.90;;;;;;4863795;29;20451;-88
2024/01/24 03:01:06;;;;;;;26.27;24.63;;;9.70;99.90;;;;;;4876933;29;20045;-88
2024/01/24 03:03:32;;;;;;;;;;;9.70;99.90;;;;;;4864126;29;20026;-88
2024/01/24 03:05:59;;;;;;;26.40;24.80;;;9.60;99.90;;;;;;4863612;29;19908;-88
2024/01/24 03:08:25;;;;;;;27.02;24.95;;;9.60;99.90;;;;;;4863483;29;20125;-89
2024/01/24 03:10:51;;;;;;;26.70;25.05;;;9.60;99.90;;;;;;4863438;29;20069;-87
2024/01/24 03:13:18;;;;;;;27.75;25.40;;;9.60;99.90;;;;;;4882034;29;20057;-88
2024/01/24 03:15:44;;;;;;;28.20;25.70;;;9.60;99.90;;;;;;4880464;29;20082;-88
2024/01/24 03:18:14;;;;;;;27.77;25.98;;;9.60;99.90;;;;;;4874940;29;20033;-87
2024/01/24 03:20:40;;;;;;;27.20;25.60;;;9.60;99.90;;;;;;4851948;29;20041;-87
2024/01/24 03:23:06;;;;;;;27.67;25.98;;;9.60;99.90;;;;;;4881944;29;20479;-88
2024/01/24 03:25:33;;;;;;;28.42;26.30;;;9.60;99.90;;;;;;4881954;29;20033;-87
2024/01/24 03:27:59;;;;;;;27.65;26.05;;;9.60;99.90;;;;;;4873202;29;20036;-88
2024/01/24 03:30:25;;;;;;;27.85;26.25;;;9.60;99.90;;;;;;4850423;29;20029;-87
2024/01/24 03:32:52;;;;;;;27.35;25.40;;;9.60;99.90;;;;;;4881800;29;20033;-88
2024/01/24 03:35:18;;;;;;;28.48;26.35;;;9.60;99.90;;;;;;4865853;29;20021;-88
2024/01/24 03:37:44;;;;;;;27.95;26.20;;;9.50;99.90;;;;;;4866086;29;20029;-88
2024/01/24 03:40:11;;;;;;;27.38;25.60;;;9.50;99.90;;;;;;4850699;29;20123;-87
2024/01/24 03:42:37;;;;;;;27.48;25.70;;;9.50;99.90;;;;;;4866067;29;20045;-88
2024/01/24 03:45:04;;;;;;;27.42;25.75;;;9.50;99.90;;;;;;4850749;29;20118;-87
2024/01/24 03:47:30;;;;;;;27.85;25.95;;;9.50;99.90;;;;;;4866121;29;20410;-88
2024/01/24 03:49:57;;;;;;;27.42;25.58;;;9.50;99.90;;;;;;4850758;29;20395;-88
2024/01/24 03:52:26;;;;;;;28.05;26.15;;;9.50;99.90;;;;;;4866105;29;20101;-88
2024/01/24 03:54:52;;;;;;;27.67;25.98;;;9.50;99.90;;;;;;4865807;29;20475;-88
2024/01/24 03:57:19;;;;;;;27.85;25.83;;;9.60;99.90;;;;;;4881318;29;20093;-88
2024/01/24 03:59:45;;;;;;;31.48;28.55;;;9.60;99.90;;;;;;4865570;29;20036;-88
2024/01/24 04:02:11;;;;;;;29.55;27.00;;;9.60;99.90;;;;;;4881210;29;20491;-87
2024/01/24 04:04:37;;;;;;;28.88;26.98;;;9.60;99.90;;;;;;4862379;29;20037;-87
2024/01/24 04:07:04;;;;;;;29.48;27.17;;;9.70;99.90;;;;;;4847272;29;20117;-88
2024/01/24 04:09:30;;;;;;;28.05;26.30;;;9.70;99.90;;;;;;4847127;29;20033;-87
2024/01/24 04:11:57;;;;;;;28.90;26.60;;;9.70;99.90;;;;;;4847105;29;20124;-88
2024/01/24 04:14:23;;;;;;;28.50;26.67;;;9.70;99.90;;;;;;4862527;29;20092;-87
2024/01/24 04:16:50;;;;;;;29.45;27.35;;;9.70;99.90;;;;;;4865639;29;20509;-91
2024/01/24 04:19:16;;;;;;;28.75;26.75;;;9.70;99.90;;;;;;4865862;29;20029;-90
2024/01/24 04:21:43;;;;;;;29.30;27.10;;;9.70;99.90;;;;;;4865888;29;20064;-90
2024/01/24 04:24:09;;;;;;;29.98;27.88;;;9.70;99.90;;;;;;4875116;29;20041;-90
2024/01/24 04:26:36;;;;;;;29.85;27.75;;;9.70;99.90;;;;;;4880864;29;20579;-90
2024/01/24 04:29:02;;;;;;;30.98;28.40;;;9.70;99.90;;;;;;4865406;29;20025;-90
2024/01/24 04:31:29;;;;;;;30.83;28.63;;;9.80;99.90;;;;;;4865652;29;20033;-90
2024/01/24 04:33:55;;;;;;;30.02;27.77;;;9.70;99.90;;;;;;4865610;29;20029;-89
2024/01/24 04:36:21;;;;;;;29.60;27.73;;;9.70;99.90;;;;;;4887924;29;20021;-90
2024/01/24 04:38:51;;;;;;;29.67;27.98;;;9.70;99.90;;;;;;4873074;29;20025;-89
2024/01/24 04:41:17;;;;;;;31.08;28.85;;;9.60;99.90;;;;;;4880611;29;20041;-91
2024/01/24 04:43:44;;;;;;;30.58;28.63;;;9.70;99.90;;;;;;4865456;29;20025;-92
2024/01/24 04:46:14;;;;;;;30.80;28.90;;;9.70;99.90;;;;;;4880880;29;20062;-92
2024/01/24 04:48:48;;;;;;;30.40;28.52;;;9.70;99.90;;;;;;4880567;29;20029;-92
2024/01/24 04:51:15;;;;;;;30.50;28.33;;;9.70;99.90;;;;;;4880508;29;20033;-92
2024/01/24 04:53:41;;;;;;;31.05;29.08;;;9.80;99.90;;;;;;4864868;29;20028;-90
2024/01/24 04:56:08;;;;;;;31.33;29.48;;;9.80;99.90;;;;;;4880280;29;20562;-91
2024/01/24 04:58:34;;;;;;;31.30;29.27;;;9.80;99.90;;;;;;4864624;29;20384;-88
2024/01/24 05:01:01;;;;;;;31.67;29.35;;;9.80;99.90;;;;;;4880020;29;20051;-87
2024/01/24 05:03:27;;;;;;;31.40;29.20;;;9.70;99.90;;;;;;4864737;29;20053;-89
2024/01/24 05:05:54;;;;;;;31.23;29.40;;;9.70;99.90;;;;;;4880098;29;20029;-89
2024/01/24 05:08:20;;;;;;;31.30;29.25;;;9.70;99.90;;;;;;4864587;29;20499;-91
2024/01/24 05:10:47;;;;;;;30.50;28.52;;;9.70;99.90;;;;;;4864834;29;20040;-91
2024/01/24 05:13:13;;;;;;;30.55;28.73;;;9.80;99.90;;;;;;4861421;29;20057;-89
2024/01/24 05:15:40;;;;;;;31.67;29.38;;;9.80;99.90;;;;;;4846223;29;20129;-92
2024/01/24 05:18:07;;;;;;;30.70;28.88;;;9.80;99.90;;;;;;4846474;29;20034;-90
2024/01/24 05:20:33;;;;;;;31.10;29.20;;;9.80;99.90;;;;;;4846084;29;20128;-88
2024/01/24 05:22:59;;;;;;;31.77;29.38;;;9.70;99.90;;;;;;4861249;29;20113;-90
2024/01/24 05:25:26;;;;;;;30.92;29.02;;;9.60;99.90;;;;;;4845954;29;20060;-89
2024/01/24 05:27:52;;;;;;;31.33;28.75;;;9.60;99.90;;;;;;4869109;29;20116;-91
2024/01/24 05:30:19;;;;;;;30.50;28.60;;;9.60;99.90;;;;;;4845877;29;20400;-89
2024/01/24 05:32:48;;;;;;;30.65;28.42;;;9.50;99.90;;;;;;4861002;29;20603;-89
2024/01/24 05:35:16;;;;;;;29.50;27.67;;;9.50;99.90;;;;;;4845705;29;20058;-88
2024/01/24 05:37:43;;;;;;;29.92;27.85;;;9.50;99.90;;;;;;4861149;29;20030;-89
2024/01/24 05:40:10;;;;;;;29.05;27.13;;;9.40;99.90;;;;;;4845583;29;20033;-90
2024/01/24 05:42:37;;;;;;;29.10;27.13;;;9.30;99.90;;;;;;4860644;29;20498;-85
2024/01/24 05:45:05;;;;;;;30.08;27.95;;;9.30;99.90;;;;;;4845931;29;20030;-90
2024/01/24 05:47:32;;;;;;;29.42;27.75;;;9.30;99.90;;;;;;4861573;29;20029;-90
2024/01/24 05:50:03;;;;;;;29.25;27.45;;;9.30;99.90;;;;;;4845576;29;20053;-89
2024/01/24 05:52:41;;;;;;;30.48;27.63;;;9.30;99.90;;;;;;4845609;29;20041;-91
2024/01/24 05:55:12;;;;;;;29.15;27.42;;;9.20;99.90;;;;;;4850969;29;20030;-92
2024/01/24 05:57:39;;;;;;;29.55;27.35;;;9.30;99.90;;;;;;4845787;29;20037;-90
2024/01/24 06:00:13;;;;;;;29.85;27.42;;;9.30;99.90;;;;;;4860650;29;20030;-89
2024/01/24 06:02:41;;;;;;;30.23;28.25;;;9.30;99.90;;;;;;4844684;29;20094;-89
2024/01/24 06:05:08;;;;;;;30.60;28.30;;;9.40;99.90;;;;;;4876328;29;20034;-89
2024/01/24 06:07:37;;;;;;;30.05;28.25;;;9.40;99.90;;;;;;4860787;29;20037;-90
2024/01/24 06:10:04;;;;;;;31.25;28.90;;;9.30;99.90;;;;;;4860613;29;20038;-89
2024/01/24 06:12:30;;;;;;;30.52;28.52;;;9.30;99.90;;;;;;4877948;29;20033;-89
2024/01/24 06:14:57;;;;;;;30.63;28.65;;;9.20;99.90;;;;;;4890353;29;20056;-89
2024/01/24 06:17:23;;;;;;;29.80;28.02;;;9.20;99.90;;;;;;4882271;29;20119;-88
2024/01/24 06:19:52;;;;;;;30.25;28.38;;;9.20;99.90;;;;;;4879195;29;20044;-89
2024/01/24 06:22:18;;;;;;;29.80;27.80;;;9.10;99.90;;;;;;4878822;29;20059;-89
2024/01/24 06:24:45;;;;;;;29.88;27.88;;;9.20;99.90;;;;;;4863588;29;20036;-91
2024/01/24 06:27:12;;;;;;;30.80;28.48;;;9.10;99.90;;;;;;4848397;29;20069;-89
2024/01/24 06:29:38;;;;;;;30.95;29.02;;;9.20;99.90;;;;;;4863591;29;20112;-88
2024/01/24 06:32:06;;;;;;;31.40;28.98;;;9.30;99.90;;;;;;4851086;29;20029;-87
2024/01/24 06:34:32;;;;;;;30.52;28.50;;;9.30;99.90;;;;;;4870527;29;20033;-90
2024/01/24 06:36:59;;;;;;;30.35;28.35;;;9.40;99.90;;;;;;4863708;29;20030;-88
2024/01/24 06:39:29;;;;;;;30.35;28.38;;;9.40;99.90;;;;;;4863607;29;20040;-88
2024/01/24 06:41:56;;;;;;;30.05;27.80;;;9.40;99.90;;;;;;4844864;29;20034;-91
2024/01/24 06:44:23;;;;;;;31.58;29.58;;;9.40;99.90;;;;;;4847063;29;20025;-88
2024/01/24 06:46:50;;;;;;;32.65;29.90;;;9.60;99.90;;;;;;4863077;29;20089;-87
2024/01/24 06:49:16;;;;;;;32.17;30.08;;;9.80;99.90;;;;;;4863434;29;20036;-88
2024/01/24 06:51:45;;;;;;;34.05;31.30;;;10.00;99.90;;;;;;4863334;29;20026;-88
2024/01/24 06:54:13;;;;;;;32.95;30.75;;;10.20;99.90;;;;;;4863156;29;20036;-89
2024/01/24 06:56:39;;;;;;;34.00;31.45;;;10.30;99.90;;;;;;4862681;29;20040;-89
2024/01/24 06:59:06;;;;;;;33.97;31.52;;;10.40;99.90;;;;;;4863290;29;20033;-89
2024/01/24 07:01:32;;;;;;;33.80;31.45;;;10.40;99.90;;;;;;4851621;29;20033;-88
2024/01/24 07:03:59;;;;;;;33.25;30.83;;;10.50;99.90;;;;;;4878906;29;20033;-90
2024/01/24 07:06:25;;;;;;;33.47;31.15;;;10.50;99.90;;;;;;4878709;29;20033;-88
2024/01/24 07:08:52;;;;;;;33.88;31.77;;;10.70;99.90;;;;;;4878717;29;20033;-87
2024/01/24 07:11:18;;;;;;;33.63;31.00;;;10.70;99.90;;;;;;4878558;29;20025;-88
2024/01/24 07:13:44;;;;;;;33.47;31.20;;;10.90;99.90;;;;;;4877678;29;20049;-88
2024/01/24 07:16:11;;;;;;;34.28;31.65;;;10.80;99.90;;;;;;4863356;29;20491;-88
2024/01/24 07:18:37;;;;;;;34.03;31.60;;;11.00;99.90;;;;;;4863201;29;20029;-83
2024/01/24 07:21:06;;;;;;;33.72;31.52;;;11.10;99.90;;;;;;4863129;29;20166;-90
2024/01/24 07:23:34;;;;;;;34.17;31.38;;;11.30;99.90;;;;;;4863247;29;20034;-91
2024/01/24 07:26:00;;;;;;;34.58;32.17;;;11.40;99.90;;;;;;4863164;29;20112;-88
2024/01/24 07:28:29;;;;;;;33.63;31.42;;;11.60;99.90;;;;;;4862648;29;20034;-90
2024/01/24 07:30:58;;;;;;;33.85;31.17;;;11.60;99.90;;;;;;4863099;29;20077;-89
2024/01/24 07:33:26;;;;;;;33.80;31.38;;;11.80;99.90;;;;;;4847517;29;20053;-89
2024/01/24 07:35:52;;;;;;;33.33;31.02;;;11.80;99.90;;;;;;4862597;29;20034;-89
2024/01/24 07:38:18;;;;;;;34.03;31.42;;;11.80;99.90;;;;;;4847790;29;20034;-90
2024/01/24 07:40:45;;;;;;;32.90;30.73;;;12.10;99.90;;;;;;4874081;29;20033;-90
2024/01/24 07:43:15;;;;;;;32.72;30.42;;;12.20;99.90;;;;;;4847101;29;20112;-90
2024/01/24 07:45:42;;;;;;;32.08;29.70;;;12.20;99.90;;;;;;4847647;29;20037;-90
2024/01/24 07:48:13;;;;;;;32.20;30.05;;;12.20;99.90;;;;;;4847397;29;20049;-89
2024/01/24 07:50:43;;;;;;;32.58;30.27;;;12.40;99.90;;;;;;4840644;29;20038;-90
2024/01/24 07:53:10;;;;;;;32.53;30.17;;;12.40;99.90;;;;;;4813868;29;20034;-89
2024/01/24 07:55:36;;;;;;;33.13;30.58;;;12.40;99.90;;;;;;4839895;29;20064;-90
2024/01/24 07:58:03;;;;;;;33.90;31.48;;;12.60;99.90;;;;;;4823633;29;20034;-89
2024/01/24 08:00:31;;;;;;;33.67;31.48;;;12.70;99.90;;;;;;4828705;29;20030;-91
2024/01/24 08:03:00;;;;;;;33.20;30.80;;;12.70;99.90;;;;;;4828651;29;20120;-90
2024/01/24 08:05:29;;;;;;;33.15;30.55;;;12.60;99.90;;;;;;4843385;29;20487;-91
2024/01/24 08:07:59;;;;;;;33.33;30.88;;;12.70;99.90;;;;;;4847465;29;20049;-88
2024/01/24 08:10:25;;;;;;;34.00;31.35;;;12.80;99.90;;;;;;4847735;29;20036;-86
2024/01/24 08:12:52;;;;;;;32.97;30.65;;;12.50;99.90;;;;;;4851216;29;20041;-88
2024/01/24 08:15:19;;;;;;;31.85;29.65;;;12.20;99.90;;;;;;4850635;29;20132;-87
2024/01/24 08:17:48;;;;;;;31.60;29.38;;;12.10;99.90;;;;;;4850313;29;20037;-88
2024/01/24 08:20:17;;;;;;;31.83;29.52;;;12.10;99.90;;;;;;4849998;29;20104;-86
2024/01/24 08:22:44;;;;;;;31.02;29.02;;;12.20;99.90;;;;;;4876839;29;20032;-87
2024/01/24 08:25:10;;;;;;;32.42;29.95;;;12.20;99.90;;;;;;4864941;29;20037;-85
2024/01/24 08:27:37;;;;;;;32.58;30.15;;;12.30;99.90;;;;;;4865733;29;20049;-86
2024/01/24 08:30:05;;;;;;;32.47;30.17;;;12.50;99.90;;;;;;4850211;29;20044;-86
2024/01/24 08:32:32;;;;;;;31.88;29.88;;;12.50;99.90;;;;;;4866019;29;20059;-86
2024/01/24 08:34:58;;;;;;;32.15;30.15;;;12.40;99.90;;;;;;4866133;29;20056;-84
2024/01/24 08:37:24;;;;;;;33.22;31.05;;;12.40;99.90;;;;;;4864216;29;20051;-85
2024/01/24 08:39:51;;;;;;;33.70;31.42;;;12.40;99.90;;;;;;4864465;29;20179;-85
2024/01/24 08:42:18;;;;;;;34.30;32.00;;;12.40;99.90;;;;;;4849043;29;20047;-85
2024/01/24 08:44:44;;;;;;;33.55;31.17;;;12.40;99.90;;;;;;4864393;29;20021;-84
2024/01/24 08:47:11;;;;;;;35.03;32.33;;;12.40;99.90;;;;;;4872749;29;20036;-85
2024/01/24 08:49:38;;;;;;;34.35;31.98;;;12.40;99.90;;;;;;4861203;29;20036;-85
2024/01/24 08:52:05;;;;;;;33.95;31.52;;;12.50;99.90;;;;;;4845794;29;20084;-85
2024/01/24 08:54:31;;;;;;;32.95;31.00;;;12.50;99.90;;;;;;4863979;29;20398;-84
2024/01/24 08:56:58;;;;;;;34.10;31.42;;;12.60;99.90;;;;;;4864228;29;20097;-88
2024/01/24 08:59:24;;;;;;;33.65;31.45;;;12.60;99.90;;;;;;4864316;29;20169;-85
2024/01/24 09:01:55;;;;;;;33.85;31.45;;;12.70;99.90;;;;;;4865076;29;20084;-86
2024/01/24 09:04:22;;;;;;;34.17;31.38;;;12.80;99.90;;;;;;4860984;29;20026;-86
2024/01/24 09:06:49;;;;;;;33.72;31.42;;;12.80;99.90;;;;;;4845750;29;20368;-85
2024/01/24 09:09:15;;;;;;;34.38;31.92;;;12.60;99.90;;;;;;4846543;29;20033;-85
2024/01/24 09:11:42;;;;;;;33.60;31.35;;;12.60;99.90;;;;;;4854684;29;20032;-84
2024/01/24 09:14:10;;;;;;;34.15;31.95;;;12.60;99.90;;;;;;4855666;29;20061;-85
2024/01/24 09:16:37;;;;;;;34.55;32.15;;;12.60;99.90;;;;;;4860715;29;20030;-85
2024/01/24 09:19:04;;;;;;;34.13;31.65;;;12.70;99.90;;;;;;4845625;29;20033;-85
2024/01/24 09:21:34;;;;;;;33.75;31.50;;;12.70;99.90;;;;;;4860737;29;20395;-85
2024/01/24 09:24:06;;;;;;;33.05;30.85;;;12.70;99.90;;;;;;4860963;29;20029;-85
2024/01/24 09:26:36;;;;;;;34.85;32.03;;;12.70;99.90;;;;;;4875762;29;20456;-84
2024/01/24 09:29:02;;;;;;;33.40;31.30;;;12.70;99.90;;;;;;4874581;29;20607;-84
2024/01/24 09:31:30;;;;;;;34.35;31.38;;;12.90;99.90;;;;;;4846227;29;20062;-85
2024/01/24 09:33:56;;;;;;;33.95;31.67;;;13.00;99.90;;;;;;4878023;29;20056;-87
2024/01/24 09:36:27;;;;;;;33.70;31.60;;;13.00;99.90;;;;;;4861577;29;20037;-84
2024/01/24 09:38:54;;;;;;;33.85;31.50;;;13.00;99.90;;;;;;4859482;29;20030;-85
2024/01/24 09:41:21;;;;;;;33.75;31.55;;;13.10;99.90;;;;;;4859520;29;20486;-85
2024/01/24 09:43:48;;;;;;;33.47;31.30;;;12.90;99.90;;;;;;4860192;29;20029;-84
2024/01/24 09:46:17;;;;;;;33.42;31.27;;;12.80;99.90;;;;;;4860063;29;20499;-85
2024/01/24 09:48:45;;;;;;;34.55;32.25;;;12.90;99.90;;;;;;4860366;29;20136;-85
2024/01/24 09:51:13;;;;;;;34.38;32.05;;;12.90;99.90;;;;;;4863089;29;20413;-85
2024/01/24 09:53:42;;;;;;;34.95;32.70;;;12.90;99.90;;;;;;4865678;29;20560;-85
2024/01/24 09:56:09;;;;;;;34.10;32.00;;;13.00;99.90;;;;;;4860139;29;20025;-84
2024/01/24 09:58:35;;;;;;;36.58;33.40;;;13.10;99.90;;;;;;4859853;29;20483;-85
2024/01/24 10:01:04;;;;;;;34.95;32.55;;;13.20;99.90;;;;;;4860171;29;20042;-86
2024/01/24 10:03:32;;;;;;;35.35;33.10;;;13.20;99.90;;;;;;4844979;29;20030;-87
2024/01/24 10:06:00;;;;;;;33.22;31.05;;;13.20;99.90;;;;;;4860290;29;20029;-85
2024/01/24 10:08:28;;;;;;;33.42;31.20;;;13.20;99.90;;;;;;4844000;29;20033;-85
2024/01/24 10:10:54;;;;;;;32.55;30.50;;;13.10;99.90;;;;;;4860516;29;20026;-89
2024/01/24 10:13:26;;;;;;;33.40;31.40;;;13.00;99.90;;;;;;4860522;29;20053;-89
2024/01/24 10:15:56;;;;;;;33.60;31.42;;;13.00;99.90;;;;;;4827445;29;20086;-89
2024/01/24 10:18:24;;;;;;;33.28;31.15;;;13.00;99.90;;;;;;4849514;29;20026;-88
2024/01/24 10:20:50;;;;;;;32.25;30.30;;;13.10;99.90;;;;;;4845109;29;20037;-85
2024/01/24 10:23:17;;;;;;;33.72;31.48;;;13.20;99.90;;;;;;4860402;29;20054;-85
2024/01/24 10:25:44;;;;;;;33.17;30.98;;;13.20;99.90;;;;;;4832998;29;20041;-85
2024/01/24 10:28:13;;;;;;;33.35;31.35;;;13.20;99.90;;;;;;4860187;29;20113;-85
2024/01/24 10:30:43;;;;;;;32.67;30.67;;;13.20;99.90;;;;;;4859917;29;20030;-86
2024/01/24 10:33:13;;;;;;;32.78;30.83;;;13.10;99.90;;;;;;4844723;29;20486;-85
2024/01/24 10:35:40;;;;;;;32.95;30.90;;;13.00;99.90;;;;;;4860331;29;20403;-85
2024/01/24 10:38:11;;;;;;;32.63;30.60;;;13.20;99.90;;;;;;4850758;29;20037;-84
2024/01/24 10:40:41;;;;;;;32.85;30.75;;;13.20;99.90;;;;;;4829562;29;20041;-85
2024/01/24 10:43:14;;;;;;;33.63;31.52;;;13.10;99.90;;;;;;4844519;29;20514;-84
2024/01/24 10:45:44;;;;;;;33.42;30.85;;;13.10;99.90;;;;;;4844592;29;20121;-85
2024/01/24 10:48:12;;;;;;;32.85;30.67;;;13.20;99.90;;;;;;4846164;29;20037;-82
2024/01/24 10:50:39;;;;;;;32.13;30.13;;;13.30;99.90;;;;;;4847484;29;20037;-83
2024/01/24 10:53:08;;;;;;;32.03;30.13;;;13.30;99.90;;;;;;4859702;29;20117;-82
2024/01/24 10:55:36;;;;;;;32.33;30.25;;;13.30;99.90;;;;;;4860323;29;20034;-82
2024/01/24 10:58:03;;;;;;;32.25;30.15;;;13.40;99.90;;;;;;4862687;29;20065;-82
2024/01/24 11:00:30;;;;;;;34.30;31.38;;;13.50;99.90;;;;;;4862835;29;20037;-82
2024/01/24 11:03:00;;;;;;;34.97;32.17;;;13.50;99.90;;;;;;4862547;29;20041;-82
2024/01/24 11:05:43;;;;;;;32.63;30.52;;;13.50;99.90;;;;;;4862518;29;20387;-81
2024/01/24 11:08:18;;;;;;;32.95;30.92;;;13.40;99.90;;;;;;4862560;29;20092;-81
2024/01/24 11:10:46;;;;;;;32.45;30.60;;;13.40;99.90;;;;;;4862226;29;20037;-82
2024/01/24 11:13:12;;;;;;;33.70;31.52;;;13.30;99.90;;;;;;4899259;29;20082;-82
2024/01/24 11:15:40;;;;;;;35.22;32.85;;;13.20;99.90;;;;;;4865699;29;20054;-82
2024/01/24 11:18:21;;;;;;;33.97;31.83;;;13.40;99.90;;;;;;4865417;29;20479;-82
2024/01/24 11:20:55;;;;;;;33.35;30.88;;;13.40;99.90;;;;;;4865230;29;20069;-81
2024/01/24 11:23:45;;;;;;;33.45;31.25;;;13.40;99.90;;;;;;4879596;29;20391;-82
2024/01/24 11:26:17;;;;;;;33.13;31.13;;;13.30;99.90;;;;;;4870036;29;20041;-81
2024/01/24 11:28:47;;;;;;;32.45;30.35;;;13.40;99.90;;;;;;4880987;29;20147;-82
2024/01/24 11:31:14;;;;;;;33.60;30.90;;;13.60;99.90;;;;;;4864497;29;20048;-82
2024/01/24 11:34:09;;;;;;;32.60;30.67;;;13.50;99.90;;;;;;4880645;29;20037;-82
2024/01/24 11:36:52;;;;;;;33.47;31.50;;;13.50;99.90;;;;;;4865379;29;20033;-83
2024/01/24 11:39:30;;;;;;;33.20;31.08;;;13.30;99.90;;;;;;4864197;29;20033;-82
2024/01/24 11:42:26;;;;;;;32.58;30.35;;;13.30;99.90;;;;;;4882856;29;20037;-82
2024/01/24 11:44:53;;;;;;;32.15;30.15;;;13.40;99.90;;;;;;4844281;29;20128;-82
2024/01/24 11:47:25;;;;;;;32.35;30.20;;;13.40;99.90;;;;;;4864763;29;20029;-82
2024/01/24 11:49:52;;;;;;;33.40;31.20;;;13.40;99.90;;;;;;4864969;29;20029;-81
2024/01/24 11:52:22;;;;;;;32.67;30.70;;;13.30;99.90;;;;;;4854818;29;20024;-82
2024/01/24 11:54:54;;;;;;;32.38;30.27;;;13.30;99.90;;;;;;4880275;29;20041;-82
2024/01/24 11:57:21;;;;;;;32.70;30.25;;;13.50;99.90;;;;;;4895749;29;20072;-82
2024/01/24 11:59:47;;;;;;;32.08;30.00;;;13.60;99.90;;;;;;4860297;29;20081;-82
2024/01/24 12:02:13;;;;;;;31.55;29.55;;;13.50;99.90;;;;;;4870267;29;20119;-83
2024/01/24 12:04:40;;;;;;;32.30;29.95;;;13.40;99.90;;;;;;4866294;29;20130;-79
2024/01/24 12:07:10;;;;;;;32.35;30.35;;;13.40;99.90;;;;;;4879919;29;20043;-78
2024/01/24 12:09:36;;;;;;;32.55;30.27;;;13.40;99.90;;;;;;4881174;29;20033;-78
2024/01/24 12:12:03;;;;;;;31.73;29.63;;;13.30;99.90;;;;;;4881051;29;20100;-78
2024/01/24 12:14:31;;;;;;;31.83;29.83;;;13.30;99.90;;;;;;4879565;29;20071;-78
2024/01/24 12:16:57;;;;;;;32.42;30.10;;;13.40;99.90;;;;;;4881021;29;20022;-78
2024/01/24 12:19:23;;;;;;;31.70;29.58;;;13.50;99.90;;;;;;4864163;29;20063;-78
2024/01/24 12:21:50;;;;;;;31.67;29.67;;;13.50;99.90;;;;;;4886399;29;20032;-78
2024/01/24 12:24:16;;;;;;;31.92;29.48;;;13.50;99.90;;;;;;4899603;29;20025;-78
2024/01/24 12:26:42;;;;;;;31.60;29.70;;;13.50;99.90;;;;;;4899394;29;20033;-78
2024/01/24 12:29:09;;;;;;;31.67;29.67;;;13.20;99.90;;;;;;4899473;29;20483;-78
2024/01/24 12:31:38;;;;;;;32.50;29.98;;;13.10;99.90;;;;;;4895608;29;20025;-78
2024/01/24 12:34:07;;;;;;;32.72;29.90;;;13.20;99.90;;;;;;4863937;29;20033;-78
2024/01/24 12:36:33;;;;;;;31.90;29.85;;;13.20;99.90;;;;;;4848378;29;20040;-78